Lake Worth, FL

12:00 PM EDT on August 03, 2015 (GMT -0400)
APRSWXNET | | Change Station
CLOSE
Current Station
Personal Weather Station
Location: Lantana, FL
Elevation: 13 ft
Nearby Weather Stations

Elev 13 ft 26.57 °N, 80.08 °W | Updated 22 minutes ago

Mostly Cloudy
Mostly Cloudy
89 °F
Feels Like 101 °F
N
4
Wind Variable Wind from SSE
Gusts 10.0 mph

Today
High -- | Low -- °F
--% Chance of Precip.
Yesterday
High -- | Low -- °F
Precip. -- in
6:46 AM 8:06 PM
Waning Gibbous, 86% visible
Pressure 30.03 in
Visibility 10.0 miles
Clouds Scattered Clouds 3200 ft
Mostly Cloudy 4400 ft
Mostly Cloudy 24000 ft
Heat Index 101 °F
Dew Point 77 °F
Humidity 67%
Rainfall in
Snow Depth Not available.
UV 7 out of 12
Pollen 4.10 out of 12
Air Quality Not available.
Flu Activity Not available.
METAR KPBI 031553Z 19007KT 10SM SCT032 BKN044 BKN240 31/22 A3003 RMK AO2 SLP167 T03110222

More Conditions Fewer Conditions

Pressure 30.03 in
Visibility 10.0 miles
Clouds Scattered Clouds 3200 ft
Mostly Cloudy 4400 ft
Mostly Cloudy 24000 ft
Heat Index 101 °F
Dew Point 77 °F
Humidity 67%
Rainfall in
Snow Depth Not available.
UV 7 out of 12
Pollen 4.10 out of 12
Air Quality Not available.
Flu Activity Not available.
METAR KPBI 031553Z 19007KT 10SM SCT032 BKN044 BKN240 31/22 A3003 RMK AO2 SLP167 T03110222

More Conditions Fewer Conditions

10-Day Weather Forecast

×

Almanac

Astronomy

Aug. 03, 2015 Rise Set
Actual Time
Civil Twilight
Nautical Twilight
Astronomical Twilight
Moon
Length of Visible Light
Length of Day
Tomorrow will be .
, % of the Moon is Illuminated

Today's Extremes

State Highs State Lows

Community

WunderPhotos

Upload Photos

1,843,652 photos uploaded!

WunderBlogs® & News

Nearby

Air Quality

  Air Quality AQ Index Pollutant
Not available.

Snow Depth

Station Depth Elevation

Earthquake Activity

City Distance Mag. Time & Date
Minimum magnitude displayed is 2.5.

Coastal Water Temperatures

Place Temperature

Stations

Nearby Weather Stations

Station Location Temp. Windchill Dew Point Humidity Wind Precip. Elev Updated Type